createdAt,value
2023-04-17T00:01:32.318Z,9.05
2023-04-17T00:03:59.246Z,9.45
2023-04-17T00:06:27.206Z,9.32
2023-04-17T00:08:54.056Z,9.80
2023-04-17T00:11:21.395Z,9.77
2023-04-17T00:13:48.267Z,9.23
2023-04-17T00:16:15.086Z,9.95
2023-04-17T00:18:42.001Z,10.30
2023-04-17T00:21:08.897Z,10.23
2023-04-17T00:23:35.933Z,10.57
2023-04-17T00:26:02.767Z,10.90
2023-04-17T00:28:29.518Z,10.40
2023-04-17T00:30:58.288Z,11.05
2023-04-17T00:33:25.357Z,11.13
2023-04-17T00:35:52.303Z,11.05
2023-04-17T00:38:19.082Z,11.20
2023-04-17T00:40:46.351Z,11.50
2023-04-17T00:43:13.162Z,11.90
2023-04-17T00:45:40.313Z,12.45
2023-04-17T00:48:08.904Z,12.43
2023-04-17T00:50:36.887Z,11.82
2023-04-17T00:53:03.907Z,11.93
2023-04-17T00:55:32.212Z,11.77
2023-04-17T00:58:00.202Z,11.93
2023-04-17T01:00:26.995Z,11.75
2023-04-17T01:02:56.718Z,12.05
2023-04-17T01:05:25.639Z,12.32
2023-04-17T01:07:52.535Z,12.75
2023-04-17T01:10:19.375Z,11.93
2023-04-17T01:12:49.246Z,13.27
2023-04-17T01:15:16.413Z,13.50
2023-04-17T01:17:43.320Z,12.95
2023-04-17T01:20:12.040Z,12.82
2023-04-17T01:22:38.793Z,12.57
2023-04-17T01:25:06.651Z,12.85
2023-04-17T01:27:35.230Z,13.10
2023-04-17T01:30:02.158Z,13.00
2023-04-17T01:32:28.988Z,13.00
2023-04-17T01:34:55.836Z,13.85
2023-04-17T01:37:22.605Z,13.32
2023-04-17T01:39:49.433Z,13.50
2023-04-17T01:42:16.386Z,13.43
2023-04-17T01:44:43.102Z,13.95
2023-04-17T01:47:09.981Z,14.43
2023-04-17T01:49:36.745Z,13.48
2023-04-17T01:52:03.497Z,13.70
2023-04-17T01:54:30.424Z,13.02
2023-04-17T01:56:57.636Z,13.85
2023-04-17T01:59:24.682Z,13.77
2023-04-17T02:01:51.550Z,14.40
2023-04-17T02:04:18.684Z,14.43
2023-04-17T02:06:45.546Z,14.02
2023-04-17T02:09:12.552Z,14.40
2023-04-17T02:11:39.472Z,14.07
2023-04-17T02:14:06.230Z,13.82
2023-04-17T02:16:33.036Z,14.48
2023-04-17T02:18:59.789Z,14.50
2023-04-17T02:21:27.417Z,14.93
2023-04-17T02:23:54.376Z,14.40
2023-04-17T02:26:21.722Z,15.15
2023-04-17T02:28:48.411Z,15.05
2023-04-17T02:31:15.275Z,15.15
2023-04-17T02:33:42.104Z,14.60
2023-04-17T02:36:09.204Z,15.32
2023-04-17T02:38:37.750Z,15.35
2023-04-17T02:41:05.385Z,16.13
2023-04-17T02:43:32.147Z,16.17
2023-04-17T02:45:59.031Z,16.45
2023-04-17T02:48:25.880Z,17.25
2023-04-17T02:50:52.829Z,15.95
2023-04-17T02:53:19.568Z,15.98
2023-04-17T02:55:46.302Z,16.50
2023-04-17T02:58:13.398Z,16.52
2023-04-17T03:00:40.902Z,17.02
2023-04-17T03:03:08.289Z,17.02
2023-04-17T03:05:35.907Z,17.70
2023-04-17T03:08:02.789Z,17.80
2023-04-17T03:10:29.490Z,16.83
2023-04-17T03:12:56.215Z,16.75
2023-04-17T03:15:23.077Z,16.80
2023-04-17T03:17:49.919Z,16.70
2023-04-17T03:20:17.937Z,17.15
2023-04-17T03:22:45.001Z,17.00
2023-04-17T03:25:11.875Z,17.08
2023-04-17T03:27:38.861Z,17.08
2023-04-17T03:30:06.391Z,16.95
2023-04-17T03:32:33.362Z,17.05
2023-04-17T03:35:00.419Z,16.75
2023-04-17T03:37:27.293Z,16.60
2023-04-17T03:39:55.522Z,15.80
2023-04-17T03:42:22.220Z,16.58
2023-04-17T03:44:49.085Z,16.65
2023-04-17T03:47:15.996Z,16.80
2023-04-17T03:49:42.874Z,16.92
2023-04-17T03:52:09.776Z,16.70
2023-04-17T03:54:36.740Z,16.58
2023-04-17T03:57:03.996Z,15.73
2023-04-17T03:59:31.697Z,16.73
2023-04-17T04:01:58.694Z,16.10
2023-04-17T04:04:26.214Z,16.75
2023-04-17T04:06:57.550Z,17.15
2023-04-17T04:09:25.652Z,16.42
2023-04-17T04:11:52.401Z,16.85
2023-04-17T04:14:25.850Z,16.70
2023-04-17T04:16:52.973Z,17.25
2023-04-17T04:19:19.706Z,16.30
2023-04-17T04:21:46.482Z,17.90
2023-04-17T04:24:14.238Z,18.20
2023-04-17T04:26:41.290Z,17.70
2023-04-17T04:29:08.947Z,17.13
2023-04-17T04:31:37.774Z,18.33
2023-04-17T04:34:07.148Z,17.38
2023-04-17T04:36:41.844Z,17.55
2023-04-17T04:39:08.669Z,17.08
2023-04-17T04:41:39.193Z,16.45
2023-04-17T04:44:06.150Z,17.40
2023-04-17T04:46:32.919Z,17.60
2023-04-17T04:48:59.735Z,18.27
2023-04-17T04:51:26.894Z,16.98
2023-04-17T04:53:53.666Z,18.25
2023-04-17T04:56:32.368Z,17.90
2023-04-17T04:59:05.660Z,17.20
2023-04-17T05:01:32.721Z,16.77
2023-04-17T05:03:59.700Z,18.35
2023-04-17T05:06:27.744Z,17.27
2023-04-17T05:11:41.720Z,18.35
2023-04-17T05:14:08.535Z,17.85
2023-04-17T05:16:35.543Z,17.85
2023-04-17T05:19:04.746Z,17.75
2023-04-17T05:21:31.434Z,17.73
2023-04-17T05:28:20.005Z,16.75
2023-04-17T05:30:46.752Z,18.00
2023-04-17T05:33:13.524Z,17.38
2023-04-17T05:35:40.380Z,18.30
2023-04-17T05:38:07.936Z,18.30
2023-04-17T05:40:34.934Z,17.40
2023-04-17T05:43:11.354Z,18.23
2023-04-17T05:45:38.814Z,17.70
2023-04-17T05:48:05.823Z,18.50
2023-04-17T05:50:32.634Z,18.55
2023-04-17T05:52:59.371Z,19.45
2023-04-17T05:55:26.162Z,19.27
2023-04-17T05:57:52.969Z,19.55
2023-04-17T06:00:22.700Z,19.33
2023-04-17T06:02:49.931Z,18.98
2023-04-17T06:05:19.841Z,19.30
2023-04-17T06:07:46.584Z,18.98
2023-04-17T06:10:13.319Z,19.05
2023-04-17T06:12:40.348Z,18.50
2023-04-17T06:15:10.779Z,19.05
2023-04-17T06:17:40.855Z,17.88
2023-04-17T06:20:10.199Z,16.45
2023-04-17T06:22:45.028Z,16.50
2023-04-17T06:25:11.872Z,18.05
2023-04-17T06:27:38.795Z,17.20
2023-04-17T06:30:06.457Z,16.67
2023-04-17T06:32:46.635Z,17.60
2023-04-17T06:35:16.965Z,16.63
2023-04-17T06:37:43.644Z,16.65
2023-04-17T06:40:12.400Z,16.35
2023-04-17T06:42:39.181Z,17.20
2023-04-17T06:45:07.837Z,16.65
2023-04-17T06:47:34.790Z,16.00
2023-04-17T06:50:01.646Z,15.57
2023-04-17T06:52:28.516Z,14.95
2023-04-17T06:54:56.377Z,14.90
2023-04-17T06:57:23.365Z,15.15
2023-04-17T06:59:50.149Z,14.60
2023-04-17T07:02:18.263Z,15.07
2023-04-17T07:04:45.171Z,15.75
2023-04-17T07:07:12.236Z,14.15
2023-04-17T07:09:39.036Z,13.68
2023-04-17T07:12:05.879Z,13.50
2023-04-17T07:14:33.455Z,14.38
2023-04-17T07:17:01.988Z,13.63
2023-04-17T07:19:30.060Z,13.02
2023-04-17T07:21:57.023Z,12.70
2023-04-17T07:24:23.757Z,11.95
2023-04-17T07:26:50.574Z,12.85
2023-04-17T07:29:17.329Z,11.77
2023-04-17T07:31:47.220Z,12.32
2023-04-17T07:34:15.337Z,11.82
2023-04-17T07:36:42.102Z,12.23
2023-04-17T07:39:08.936Z,11.88
2023-04-17T07:41:36.103Z,12.70
2023-04-17T07:44:07.671Z,12.63
2023-04-17T07:46:35.457Z,10.63
2023-04-17T07:49:02.432Z,10.48
2023-04-17T07:51:31.493Z,10.10
2023-04-17T07:53:58.172Z,10.40
2023-04-17T07:56:27.640Z,9.60
2023-04-17T07:58:54.383Z,10.13
2023-04-17T08:01:21.408Z,9.43
2023-04-17T08:03:48.915Z,8.73
2023-04-17T08:06:16.137Z,8.30
2023-04-17T08:08:47.408Z,8.95
2023-04-17T08:11:14.716Z,9.20
2023-04-17T08:13:41.850Z,8.73
2023-04-17T08:16:09.326Z,8.60
2023-04-17T16:17:02.965Z,3.10
2023-04-17T16:19:30.958Z,3.35
2023-04-17T16:21:58.335Z,3.53
2023-04-17T16:24:25.748Z,3.40
2023-04-17T16:26:57.313Z,3.47
2023-04-17T16:29:24.922Z,3.33
2023-04-17T16:31:53.839Z,3.40
2023-04-17T16:34:21.063Z,3.45
2023-04-17T16:36:48.448Z,3.55
2023-04-17T16:39:15.585Z,3.63
2023-04-17T16:41:42.504Z,3.50
2023-04-17T16:44:09.342Z,4.13
2023-04-17T16:46:55.280Z,3.53
2023-04-17T16:49:23.047Z,3.00
2023-04-17T16:51:49.805Z,3.30
2023-04-17T16:54:16.677Z,3.75
2023-04-17T16:56:43.554Z,3.53
2023-04-17T16:59:10.453Z,3.38
2023-04-17T17:01:37.430Z,3.67
2023-04-17T17:04:04.511Z,3.42
2023-04-17T17:06:31.279Z,3.47
2023-04-17T17:08:59.591Z,3.55
2023-04-17T17:11:26.536Z,3.70
2023-04-17T17:13:53.386Z,4.03
2023-04-17T17:16:24.071Z,3.42
2023-04-17T17:18:51.055Z,3.75
2023-04-17T17:21:17.779Z,3.50
2023-04-17T17:23:44.446Z,3.58
2023-04-17T17:26:11.247Z,3.35
2023-04-17T17:28:38.004Z,3.45
2023-04-17T17:31:09.289Z,3.58
2023-04-17T17:33:36.544Z,3.58
2023-04-17T17:36:03.912Z,3.83
2023-04-17T17:38:32.712Z,3.50
2023-04-17T17:40:59.796Z,3.80
2023-04-17T17:43:29.491Z,3.70
2023-04-17T17:45:56.335Z,3.58
2023-04-17T17:48:23.110Z,4.10
2023-04-17T17:50:54.435Z,4.00
2023-04-17T17:53:26.035Z,3.90
2023-04-17T17:55:57.115Z,3.65
2023-04-17T17:58:24.617Z,3.72
2023-04-17T18:00:51.497Z,3.70
2023-04-17T18:03:19.238Z,3.78
2023-04-17T18:05:47.147Z,3.90
2023-04-17T18:08:14.602Z,3.70
2023-04-17T18:10:41.401Z,4.40
2023-04-17T18:13:08.332Z,3.75
2023-04-17T18:15:36.374Z,3.97
2023-04-17T18:18:03.498Z,3.90
2023-04-17T18:20:30.225Z,3.85
2023-04-17T18:22:57.644Z,4.13
2023-04-17T18:25:24.601Z,3.97
2023-04-17T18:27:51.430Z,4.50
2023-04-17T18:30:18.226Z,3.85
2023-04-17T18:32:45.017Z,4.30
2023-04-17T18:35:11.951Z,3.88
2023-04-17T18:37:39.617Z,4.40
2023-04-17T18:40:07.944Z,4.50
2023-04-17T18:42:34.736Z,4.30
2023-04-17T18:45:01.548Z,4.50
2023-04-17T18:47:28.616Z,4.20
2023-04-17T18:49:55.485Z,4.50
2023-04-17T18:52:22.401Z,4.55
2023-04-17T18:54:49.269Z,4.47
2023-04-17T18:57:16.098Z,4.20
2023-04-17T18:59:43.369Z,4.07
2023-04-17T19:02:10.288Z,4.20
2023-04-17T19:04:37.316Z,4.75
2023-04-17T19:07:04.051Z,4.40
2023-04-17T19:09:30.845Z,4.57
2023-04-17T19:11:58.549Z,4.50
2023-04-17T19:14:25.546Z,4.80
2023-04-17T19:16:53.281Z,4.75
2023-04-17T19:19:20.143Z,4.57
2023-04-17T19:21:46.911Z,4.60
2023-04-17T19:24:13.874Z,4.80
2023-04-17T19:26:40.800Z,4.45
2023-04-17T19:29:07.526Z,4.70
2023-04-17T19:31:34.443Z,4.45
2023-04-17T19:34:01.646Z,4.88
2023-04-17T19:36:28.534Z,4.88
2023-04-17T19:38:59.121Z,4.80
2023-04-17T19:41:26.359Z,4.60
2023-04-17T19:43:55.875Z,4.28
2023-04-17T19:46:24.190Z,4.68
2023-04-17T19:48:52.385Z,4.80
2023-04-17T19:51:19.090Z,4.60
2023-04-17T19:53:47.082Z,4.85
2023-04-17T19:56:14.332Z,5.03
2023-04-17T19:58:41.705Z,5.30
2023-04-17T20:01:09.033Z,4.82
2023-04-17T20:03:38.309Z,5.20
2023-04-17T20:06:05.360Z,4.82
2023-04-17T20:08:32.218Z,4.80
2023-04-17T20:10:59.565Z,4.80
2023-04-17T20:13:27.883Z,5.50
2023-04-17T20:15:54.787Z,5.00
2023-04-17T20:18:21.661Z,4.88
2023-04-17T20:20:48.422Z,4.80
2023-04-17T20:23:15.266Z,5.53
2023-04-17T20:25:42.272Z,5.40
2023-04-17T20:28:09.597Z,4.80
2023-04-17T20:30:36.647Z,4.78
2023-04-17T20:33:04.288Z,4.80
2023-04-17T20:35:31.279Z,5.30
2023-04-17T20:37:58.820Z,5.05
2023-04-17T20:40:25.739Z,5.40
2023-04-17T20:42:52.463Z,5.13
2023-04-17T20:45:19.382Z,5.45
2023-04-17T20:47:56.595Z,5.88
2023-04-17T20:50:25.492Z,5.40
2023-04-17T20:52:52.250Z,5.30
2023-04-17T20:55:19.904Z,5.45
2023-04-17T20:57:47.424Z,5.05
2023-04-17T21:00:14.653Z,5.88
2023-04-17T21:02:41.894Z,5.28
2023-04-17T21:05:09.352Z,5.40
2023-04-17T21:07:36.637Z,5.57
2023-04-17T21:10:03.846Z,5.82
2023-04-17T21:12:32.927Z,5.10
2023-04-17T21:14:59.861Z,5.22
2023-04-17T21:17:26.726Z,5.63
2023-04-17T21:19:55.752Z,5.78
2023-04-17T21:22:22.578Z,5.53
2023-04-17T21:24:49.448Z,5.35
2023-04-17T21:27:16.385Z,5.10
2023-04-17T21:29:43.093Z,6.75
2023-04-17T21:32:09.881Z,18.67
2023-04-17T21:34:36.703Z,10.70
2023-04-17T21:37:04.929Z,7.10
2023-04-17T21:39:33.246Z,6.18
2023-04-17T21:42:00.676Z,6.22
2023-04-17T21:44:28.151Z,5.93
2023-04-17T21:46:55.000Z,5.63
2023-04-17T21:49:22.749Z,5.47
2023-04-17T21:51:49.524Z,5.30
2023-04-17T21:54:16.824Z,5.97
2023-04-17T21:56:43.595Z,5.55
2023-04-17T21:59:10.485Z,6.07
2023-04-17T22:01:37.396Z,5.90
2023-04-17T22:04:04.438Z,5.18
2023-04-17T22:06:34.252Z,6.03
2023-04-17T22:09:01.470Z,5.80
2023-04-17T22:11:28.292Z,6.20
2023-04-17T22:13:55.238Z,6.05
2023-04-17T22:16:22.080Z,5.95
2023-04-17T22:18:48.885Z,6.35
2023-04-17T22:21:15.648Z,5.85
2023-04-17T22:23:42.617Z,6.45
2023-04-17T22:26:09.446Z,6.18
2023-04-17T22:28:36.367Z,5.57
2023-04-17T22:31:03.142Z,6.15
2023-04-17T22:33:29.858Z,6.32
2023-04-17T22:35:57.007Z,6.00
2023-04-17T22:38:23.811Z,6.47
2023-04-17T22:40:50.546Z,6.55
2023-04-17T22:43:17.274Z,5.68
2023-04-17T22:45:44.015Z,5.78
2023-04-17T22:48:11.229Z,5.57
2023-04-17T22:50:38.203Z,5.75
2023-04-17T22:53:05.628Z,5.70
2023-04-17T22:55:32.793Z,5.50
2023-04-17T22:58:01.774Z,5.68
2023-04-17T23:00:29.560Z,6.07
2023-04-17T23:02:56.645Z,5.90
2023-04-17T23:05:23.524Z,6.05
2023-04-17T23:07:50.588Z,5.60
2023-04-17T23:10:17.589Z,5.88
2023-04-17T23:12:44.265Z,6.30
2023-04-17T23:15:11.252Z,6.05
2023-04-17T23:17:38.049Z,5.60
2023-04-17T23:20:05.185Z,5.53
2023-04-17T23:22:31.929Z,5.63
2023-04-17T23:24:59.087Z,5.82
2023-04-17T23:27:25.972Z,5.90
2023-04-17T23:29:52.863Z,6.47
2023-04-17T23:32:19.684Z,6.03
2023-04-17T23:34:46.367Z,6.15
2023-04-17T23:37:13.104Z,6.07
2023-04-17T23:39:40.569Z,6.32
2023-04-17T23:42:08.051Z,6.38
2023-04-17T23:44:35.641Z,5.75
2023-04-17T23:47:03.817Z,6.00
2023-04-17T23:49:30.706Z,6.25
2023-04-17T23:51:57.349Z,5.93
2023-04-17T23:54:24.246Z,6.47
2023-04-17T23:56:51.104Z,6.85
2023-04-17T23:59:17.892Z,6.18
